Terminal Aerodrome Forecast
Issued by NWS Portland, ME

Current Version | Previous Version | Text Only | Print | Product List | Glossary On
Versions: 1 2 3 4 5 6 7 8 9 10 11 12 13 14 15 16 17 18 19 20 21 22
584
FTUS41 KGYX 281127
TAFPWM
TAF
KPWM 281127Z 2812/2912 VRB04KT P6SM OVC005
     FM281600 VRB03KT 4SM BR OVC005
     FM281900 VRB03KT 3SM -SHRA BR OVC005
     FM290800 34005KT P6SM OVC012=

USA.gov is the U.S. government's official web portal to all federal, state and local government web resources and services.